createdAt,value
2022-08-18T00:02:11.282Z,4.05
2022-08-18T00:04:46.021Z,3.92
2022-08-18T00:07:22.199Z,4.53
2022-08-18T00:09:48.938Z,4.10
2022-08-18T00:12:17.353Z,4.10
2022-08-18T00:14:45.130Z,4.30
2022-08-18T00:17:11.633Z,4.20
2022-08-18T00:19:47.580Z,5.10
2022-08-18T00:22:17.579Z,4.25
2022-08-18T00:24:48.162Z,4.35
2022-08-18T00:27:23.645Z,6.10
2022-08-18T00:29:51.355Z,4.30
2022-08-18T00:32:27.467Z,5.38
2022-08-18T00:34:54.278Z,7.65
2022-08-18T00:37:22.204Z,4.60
2022-08-18T00:39:51.976Z,4.15
2022-08-18T00:42:27.353Z,4.53
2022-08-18T00:44:57.338Z,3.97
2022-08-18T00:47:41.024Z,3.85
2022-08-18T00:50:15.013Z,4.57
2022-08-18T00:52:46.168Z,4.13
2022-08-18T00:55:12.698Z,4.72
2022-08-18T00:57:40.295Z,5.30
2022-08-18T01:00:11.716Z,4.80
2022-08-18T01:02:46.472Z,4.30
2022-08-18T01:05:24.478Z,5.00
2022-08-18T01:07:51.443Z,4.50
2022-08-18T01:10:21.194Z,4.20
2022-08-18T01:12:51.157Z,4.50
2022-08-18T01:15:28.268Z,4.70
2022-08-18T01:18:17.584Z,4.53
2022-08-18T01:21:21.503Z,4.65
2022-08-18T01:23:49.789Z,4.53
2022-08-18T01:26:18.321Z,4.10
2022-08-18T01:28:46.678Z,4.43
2022-08-18T01:31:29.958Z,4.53
2022-08-18T01:33:57.338Z,4.70
2022-08-18T01:36:24.227Z,4.40
2022-08-18T01:38:53.259Z,4.93
2022-08-18T01:41:29.815Z,4.65
2022-08-18T01:43:59.699Z,4.38
2022-08-18T01:46:27.579Z,4.85
2022-08-18T01:48:54.010Z,4.65
2022-08-18T01:51:38.181Z,4.72
2022-08-18T01:54:07.113Z,4.70
2022-08-18T01:56:33.539Z,4.45
2022-08-18T01:59:00.148Z,4.40
2022-08-18T02:01:36.413Z,4.53
2022-08-18T02:04:33.150Z,4.40
2022-08-18T02:06:56.253Z,4.55
2022-08-18T02:09:24.454Z,4.47
2022-08-18T02:11:53.113Z,4.55
2022-08-18T02:14:25.007Z,4.75
2022-08-18T02:16:57.015Z,4.47
2022-08-18T02:19:28.355Z,4.63
2022-08-18T02:21:54.820Z,4.53
2022-08-18T02:24:21.503Z,4.65
2022-08-18T02:26:47.904Z,4.40
2022-08-18T02:29:14.372Z,4.90
2022-08-18T02:31:40.841Z,4.72
2022-08-18T02:34:07.248Z,4.68
2022-08-18T02:36:33.670Z,4.80
2022-08-18T02:39:00.376Z,4.55
2022-08-18T02:41:29.590Z,5.03
2022-08-18T02:43:57.978Z,4.65
2022-08-18T02:46:29.952Z,5.07
2022-08-18T02:48:57.014Z,4.93
2022-08-18T02:51:23.506Z,4.85
2022-08-18T02:53:53.883Z,5.13
2022-08-18T02:56:32.903Z,4.65
2022-08-18T02:59:11.143Z,4.60
2022-08-18T03:01:41.028Z,5.25
2022-08-18T03:04:10.621Z,4.75
2022-08-18T03:06:39.159Z,4.85
2022-08-18T03:09:08.285Z,4.90
2022-08-18T03:11:35.714Z,4.65
2022-08-18T03:14:03.101Z,4.72
2022-08-18T03:16:33.203Z,4.90
2022-08-18T03:19:01.189Z,5.22
2022-08-18T03:21:30.992Z,5.15
2022-08-18T03:24:00.837Z,5.57
2022-08-18T03:26:30.158Z,5.18
2022-08-18T03:28:58.616Z,5.38
2022-08-18T03:31:27.971Z,5.30
2022-08-18T03:33:57.139Z,5.32
2022-08-18T03:36:29.014Z,4.90
2022-08-18T03:38:56.165Z,4.93
2022-08-18T03:41:57.117Z,5.82
2022-08-18T03:44:14.331Z,5.63
2022-08-18T03:46:43.273Z,5.65
2022-08-18T03:49:09.722Z,5.55
2022-08-18T03:51:37.383Z,6.10
2022-08-18T03:54:05.017Z,6.35
2022-08-18T03:56:35.602Z,5.97
2022-08-18T03:59:05.872Z,6.28
2022-08-18T04:01:36.817Z,6.07
2022-08-18T04:04:04.997Z,5.70
2022-08-18T04:06:34.712Z,4.90
2022-08-18T04:09:04.341Z,6.20
2022-08-18T04:11:36.570Z,5.80
2022-08-18T04:14:05.723Z,5.78
2022-08-18T04:16:34.183Z,6.25
2022-08-18T04:19:05.992Z,5.97
2022-08-18T04:21:38.211Z,5.78
2022-08-18T04:24:05.499Z,5.63
2022-08-18T04:26:33.899Z,5.90
2022-08-18T04:29:01.667Z,5.70
2022-08-18T04:31:29.543Z,5.65
2022-08-18T04:34:00.369Z,5.90
2022-08-18T04:36:27.863Z,5.80
2022-08-18T04:38:56.410Z,5.65
2022-08-18T04:41:27.563Z,5.50
2022-08-18T04:43:58.566Z,6.53
2022-08-18T04:46:27.216Z,6.47
2022-08-18T04:48:59.086Z,6.07
2022-08-18T04:52:37.357Z,5.90
2022-08-18T04:54:16.110Z,5.95
2022-08-18T04:56:43.666Z,6.30
2022-08-18T04:59:14.286Z,5.72
2022-08-18T05:01:45.896Z,6.43
2022-08-18T05:04:14.691Z,6.18
2022-08-18T05:06:43.509Z,5.97
2022-08-18T05:09:12.284Z,6.95
2022-08-18T05:11:39.274Z,6.38
2022-08-18T05:14:08.081Z,5.70
2022-08-18T05:16:47.949Z,5.70
2022-08-18T05:19:19.260Z,6.13
2022-08-18T05:21:46.039Z,6.05
2022-08-18T05:24:18.240Z,6.57
2022-08-18T05:26:45.426Z,6.15
2022-08-18T05:29:18.341Z,5.72
2022-08-18T05:31:47.101Z,5.32
2022-08-18T05:34:13.684Z,6.45
2022-08-18T05:36:53.379Z,6.03
2022-08-18T05:39:25.500Z,5.80
2022-08-18T05:42:06.217Z,6.20
2022-08-18T05:44:40.727Z,7.13
2022-08-18T05:47:13.729Z,6.40
2022-08-18T05:49:44.087Z,6.50
2022-08-18T05:52:20.662Z,6.57
2022-08-18T05:55:12.921Z,6.20
2022-08-18T05:57:51.581Z,6.47
2022-08-18T06:00:20.990Z,7.22
2022-08-18T06:02:54.307Z,11.32
2022-08-18T06:05:28.210Z,20.75
2022-08-18T06:08:06.046Z,11.07
2022-08-18T06:10:32.654Z,8.93
2022-08-18T06:13:01.480Z,7.88
2022-08-18T06:15:34.098Z,6.90
2022-08-18T06:18:27.680Z,7.47
2022-08-18T06:21:23.601Z,7.05
2022-08-18T06:24:27.490Z,10.35
2022-08-18T06:27:18.182Z,9.23
2022-08-18T06:30:07.002Z,8.13
2022-08-18T06:32:42.698Z,7.20
2022-08-18T06:35:18.686Z,8.38
2022-08-18T06:38:21.703Z,9.43
2022-08-18T06:40:49.856Z,8.77
2022-08-18T06:43:17.276Z,8.55
2022-08-18T06:45:50.378Z,9.70
2022-08-18T06:48:32.386Z,9.32
2022-08-18T06:51:02.514Z,10.45
2022-08-18T06:53:52.656Z,10.35
2022-08-18T06:56:28.468Z,10.25
2022-08-18T06:59:26.251Z,10.30
2022-08-18T07:02:22.614Z,10.10
2022-08-18T07:05:00.025Z,9.98
2022-08-18T07:07:50.982Z,10.57
2022-08-18T07:10:17.404Z,10.52
2022-08-18T07:12:44.046Z,10.65
2022-08-18T07:15:13.235Z,16.23
2022-08-18T07:17:51.465Z,9.90
2022-08-18T07:20:24.798Z,9.65
2022-08-18T07:23:07.911Z,20.25
2022-08-18T07:25:41.307Z,10.48
2022-08-18T07:28:32.168Z,10.55
2022-08-18T07:31:17.466Z,10.00
2022-08-18T07:33:51.708Z,10.88
2022-08-18T07:36:21.630Z,11.45
2022-08-18T07:39:11.564Z,11.63
2022-08-18T07:41:57.474Z,13.88
2022-08-18T07:44:40.649Z,15.02
2022-08-18T07:47:17.697Z,14.07
2022-08-18T07:50:15.800Z,15.63
2022-08-18T07:52:47.238Z,16.42
2022-08-18T07:55:14.090Z,20.90
2022-08-18T07:58:00.250Z,22.52
2022-08-18T08:00:57.677Z,20.67
2022-08-18T08:03:38.554Z,23.73
2022-08-18T08:06:19.047Z,24.05
2022-08-18T08:09:12.570Z,25.45
2022-08-18T08:11:57.540Z,27.05
2022-08-18T08:14:39.489Z,27.10
2022-08-18T08:17:30.436Z,28.50
2022-08-18T08:20:02.815Z,28.88
2022-08-18T08:22:37.186Z,28.55
2022-08-18T08:25:22.447Z,27.60
2022-08-18T08:28:20.445Z,26.73
2022-08-18T08:31:25.711Z,26.88
2022-08-18T08:33:54.332Z,26.58
2022-08-18T08:36:27.974Z,25.63
2022-08-18T08:39:00.177Z,26.33
2022-08-18T08:41:41.379Z,25.42
2022-08-18T08:44:18.040Z,27.15
2022-08-18T08:46:56.042Z,29.95
2022-08-18T08:49:39.262Z,27.20
2022-08-18T08:52:20.246Z,29.83
2022-08-18T08:54:53.700Z,28.38
2022-08-18T08:57:26.857Z,29.95
2022-08-18T08:59:57.823Z,29.17
2022-08-18T09:02:58.704Z,29.88
2022-08-18T09:05:35.165Z,29.20
2022-08-18T09:08:28.735Z,30.70
2022-08-18T09:11:19.276Z,31.58
2022-08-18T09:14:10.249Z,30.85
2022-08-18T09:17:15.511Z,32.88
2022-08-18T09:20:04.540Z,33.22
2022-08-18T09:22:52.168Z,33.70
2022-08-18T09:25:37.470Z,33.03
2022-08-18T09:28:27.851Z,30.60
2022-08-18T09:31:04.656Z,32.20
2022-08-18T09:33:38.544Z,33.03
2022-08-18T09:36:30.355Z,31.05
2022-08-18T09:39:23.295Z,31.83
2022-08-18T09:42:01.609Z,34.22
2022-08-18T09:44:48.194Z,32.03
2022-08-18T09:47:34.973Z,31.92
2022-08-18T09:50:04.777Z,33.25
2022-08-18T09:52:37.294Z,32.88
2022-08-18T09:55:27.125Z,32.77
2022-08-18T09:58:53.245Z,31.85
2022-08-18T10:01:22.693Z,31.65
2022-08-18T10:04:29.297Z,32.55
2022-08-18T10:07:36.940Z,31.70
2022-08-18T10:10:58.790Z,32.88
2022-08-18T10:13:10.730Z,32.78
2022-08-18T10:16:11.461Z,33.58
2022-08-18T10:18:51.382Z,33.45
2022-08-18T10:21:31.311Z,30.50
2022-08-18T10:26:54.762Z,29.08
2022-08-18T10:29:27.350Z,29.92
2022-08-18T10:31:57.620Z,29.45
2022-08-18T10:34:51.766Z,35.58
2022-08-18T10:37:32.404Z,29.88
2022-08-18T10:40:04.919Z,28.17
2022-08-18T10:43:01.266Z,30.90
2022-08-18T10:45:35.885Z,30.88
2022-08-18T10:48:05.602Z,28.75
2022-08-18T10:50:52.473Z,29.23
2022-08-18T10:53:44.258Z,28.83
2022-08-18T10:56:26.733Z,27.92
2022-08-18T10:59:16.345Z,28.98
2022-08-18T11:02:04.689Z,27.73
2022-08-18T11:04:38.620Z,27.80
2022-08-18T11:07:10.835Z,28.35
2022-08-18T11:09:41.966Z,27.35
2022-08-18T11:12:12.759Z,26.23
2022-08-18T11:14:42.901Z,23.75
2022-08-18T11:17:33.093Z,26.10
2022-08-18T11:20:01.336Z,24.17
2022-08-18T11:22:34.199Z,23.58
2022-08-18T11:25:04.582Z,20.42
2022-08-18T11:27:35.562Z,20.98
2022-08-18T11:30:05.929Z,20.23
2022-08-18T11:32:39.358Z,20.85
2022-08-18T11:35:45.556Z,22.85
2022-08-18T11:38:23.279Z,18.88
2022-08-18T11:41:18.859Z,18.67
2022-08-18T11:43:47.398Z,18.45
2022-08-18T11:46:38.746Z,16.95
2022-08-18T11:49:26.496Z,17.45
2022-08-18T11:52:03.011Z,20.55
2022-08-18T11:54:39.236Z,17.85
2022-08-18T11:57:51.681Z,17.15
2022-08-18T12:00:36.753Z,15.38
2022-08-18T12:03:22.345Z,16.45
2022-08-18T12:05:56.568Z,17.55
2022-08-18T12:08:57.471Z,23.10
2022-08-18T12:11:32.604Z,19.95
2022-08-18T12:14:30.179Z,17.27
2022-08-18T12:16:50.882Z,18.58
2022-08-18T12:19:23.430Z,19.88
2022-08-18T12:21:56.839Z,19.25
2022-08-18T12:24:34.316Z,19.58
2022-08-18T12:27:20.592Z,19.70
2022-08-18T12:29:48.433Z,20.40
2022-08-18T12:32:18.222Z,21.42
2022-08-18T12:35:09.182Z,20.42
2022-08-18T12:37:58.816Z,21.17
2022-08-18T12:40:22.715Z,20.38
2022-08-18T12:42:49.816Z,19.55
2022-08-18T12:45:16.626Z,18.63
2022-08-18T12:47:43.097Z,18.50
2022-08-18T12:50:10.266Z,18.58
2022-08-18T12:52:37.096Z,19.73
2022-08-18T12:55:21.765Z,18.52
2022-08-18T13:00:36.199Z,17.75
2022-08-18T13:03:02.816Z,16.15
2022-08-18T13:05:30.072Z,15.35
2022-08-18T13:08:00.350Z,20.30
2022-08-18T13:10:45.167Z,17.70
2022-08-18T13:13:13.764Z,18.90
2022-08-18T13:15:44.196Z,18.92
2022-08-18T13:18:14.380Z,21.67
2022-08-18T13:20:42.264Z,21.10
2022-08-18T13:23:12.016Z,18.10
2022-08-18T13:25:39.770Z,18.15
2022-08-18T13:28:06.678Z,19.10
2022-08-18T13:30:35.644Z,19.27
2022-08-18T13:33:35.373Z,18.45
2022-08-18T13:35:52.066Z,19.52
2022-08-18T13:38:27.729Z,21.15
2022-08-18T13:40:57.858Z,23.35
2022-08-18T13:43:31.982Z,22.48
2022-08-18T13:45:59.987Z,20.52
2022-08-18T13:48:28.348Z,19.95
2022-08-18T13:51:00.004Z,21.00
2022-08-18T13:53:29.840Z,21.13
2022-08-18T13:55:58.650Z,22.80
2022-08-18T13:58:25.693Z,20.23
2022-08-18T14:01:22.711Z,22.17
2022-08-18T14:03:47.265Z,21.17
2022-08-18T14:06:14.834Z,21.67
2022-08-18T14:08:41.767Z,20.10
2022-08-18T14:11:09.471Z,23.42
2022-08-18T14:13:43.668Z,24.90
2022-08-18T14:16:18.766Z,26.23
2022-08-18T14:19:09.469Z,25.35
2022-08-18T14:22:01.742Z,22.67
2022-08-18T14:24:48.754Z,23.13
2022-08-18T14:27:16.428Z,38.08
2022-08-18T14:29:46.991Z,24.92
2022-08-18T14:32:21.955Z,22.95
2022-08-18T14:34:59.979Z,26.35
2022-08-18T14:37:27.672Z,25.70
2022-08-18T14:39:54.342Z,24.35
2022-08-18T14:42:40.999Z,22.55
2022-08-18T14:45:26.745Z,21.13
2022-08-18T14:47:56.680Z,22.08
2022-08-18T14:50:25.198Z,24.45
2022-08-18T14:52:53.143Z,24.98
2022-08-18T14:55:20.692Z,23.23
2022-08-18T14:57:47.251Z,26.25
2022-08-18T15:00:17.880Z,25.15
2022-08-18T15:02:51.594Z,25.98
2022-08-18T15:05:19.442Z,27.75
2022-08-18T15:07:47.731Z,26.88
2022-08-18T15:10:19.672Z,25.45
2022-08-18T15:12:49.667Z,38.85
2022-08-18T15:15:18.252Z,34.05
2022-08-18T15:17:45.202Z,26.75
2022-08-18T15:20:16.772Z,26.70
2022-08-18T15:23:04.704Z,26.10
2022-08-18T15:25:46.694Z,27.20
2022-08-18T15:28:21.735Z,26.92
2022-08-18T15:30:52.061Z,25.40
2022-08-18T15:33:23.696Z,25.40
2022-08-18T15:35:52.298Z,26.88
2022-08-18T15:38:20.988Z,25.08
2022-08-18T15:40:58.018Z,24.08
2022-08-18T15:43:31.532Z,23.63
2022-08-18T15:46:00.205Z,23.10
2022-08-18T15:48:28.592Z,24.13
2022-08-18T15:50:55.533Z,23.90
2022-08-18T15:53:29.781Z,21.63
2022-08-18T15:55:57.278Z,20.92
2022-08-18T15:58:26.985Z,21.80
2022-08-18T16:00:56.258Z,22.10
2022-08-18T16:03:25.582Z,21.35
2022-08-18T16:05:54.931Z,21.00
2022-08-18T16:08:23.919Z,22.60
2022-08-18T16:10:51.047Z,22.10
2022-08-18T16:13:17.651Z,21.55
2022-08-18T16:15:46.917Z,21.33
2022-08-18T16:18:15.515Z,20.77
2022-08-18T16:20:43.324Z,20.40
2022-08-18T16:23:12.122Z,20.58
2022-08-18T16:25:42.825Z,20.13
2022-08-18T16:28:10.205Z,20.40
2022-08-18T16:30:36.788Z,21.02
2022-08-18T16:33:06.266Z,21.38
2022-08-18T16:35:34.682Z,34.45
2022-08-18T16:38:09.296Z,23.27
2022-08-18T16:40:36.233Z,21.42
2022-08-18T16:43:02.673Z,19.88
2022-08-18T16:45:31.463Z,20.33
2022-08-18T16:47:57.891Z,21.48
2022-08-18T16:50:25.382Z,22.90
2022-08-18T16:52:52.059Z,20.27
2022-08-18T16:55:18.715Z,20.40
2022-08-18T16:58:03.926Z,20.95
2022-08-18T17:00:54.548Z,21.73
2022-08-18T17:03:43.138Z,21.55
2022-08-18T17:06:13.803Z,22.58
2022-08-18T17:08:42.663Z,22.92
2022-08-18T17:11:19.604Z,22.92
2022-08-18T17:13:48.416Z,25.55
2022-08-18T17:16:16.396Z,26.23
2022-08-18T17:18:43.405Z,25.77
2022-08-18T17:21:13.267Z,26.90
2022-08-18T17:23:42.076Z,25.48
2022-08-18T17:26:28.615Z,25.95
2022-08-18T17:29:19.179Z,26.63
2022-08-18T17:31:52.988Z,25.38
2022-08-18T17:34:23.461Z,28.75
2022-08-18T17:36:56.482Z,28.90
2022-08-18T17:39:32.790Z,28.40
2022-08-18T17:42:18.179Z,27.40
2022-08-18T17:44:52.051Z,27.02
2022-08-18T17:47:37.791Z,26.20
2022-08-18T17:50:27.871Z,25.95
2022-08-18T17:53:07.414Z,26.45
2022-08-18T17:55:44.104Z,27.48
2022-08-18T17:58:42.256Z,27.30
2022-08-18T18:01:10.713Z,26.90
2022-08-18T18:03:38.009Z,28.10
2022-08-18T18:06:38.758Z,28.27
2022-08-18T18:09:29.262Z,25.65
2022-08-18T18:11:55.894Z,33.75
2022-08-18T18:14:39.612Z,30.45
2022-08-18T18:19:42.679Z,27.98
2022-08-18T18:22:18.421Z,27.10
2022-08-18T18:25:00.509Z,27.70
2022-08-18T18:27:29.971Z,27.85
2022-08-18T18:30:27.325Z,27.55
2022-08-18T18:33:18.652Z,25.67
2022-08-18T18:35:54.227Z,28.58
2022-08-18T18:38:40.676Z,32.00
2022-08-18T18:41:10.201Z,27.65
2022-08-18T18:43:41.998Z,29.00
2022-08-18T18:46:32.213Z,28.33
2022-08-18T18:49:10.816Z,35.38
2022-08-18T18:52:06.115Z,28.80
2022-08-18T18:54:38.429Z,29.25
2022-08-18T18:57:12.753Z,28.98
2022-08-18T19:00:16.753Z,28.67
2022-08-18T19:02:54.121Z,28.83
2022-08-18T19:05:25.006Z,27.67
2022-08-18T19:08:24.544Z,28.27
2022-08-18T19:11:16.329Z,27.15
2022-08-18T19:13:57.527Z,27.73
2022-08-18T19:16:42.570Z,28.42
2022-08-18T19:19:37.576Z,30.98
2022-08-18T19:22:34.697Z,27.88
2022-08-18T19:25:13.394Z,26.33
2022-08-18T19:27:51.379Z,28.98
2022-08-18T19:30:21.335Z,28.67
2022-08-18T19:32:55.104Z,28.63
2022-08-18T19:35:58.851Z,24.15
2022-08-18T19:41:05.766Z,25.23
2022-08-18T19:43:47.787Z,26.15
2022-08-18T19:46:24.790Z,24.23
2022-08-18T19:49:08.811Z,25.17
2022-08-18T19:51:39.946Z,24.85
2022-08-18T19:54:21.467Z,24.75
2022-08-18T19:57:16.145Z,23.80
2022-08-18T20:00:12.075Z,23.42
2022-08-18T20:02:49.536Z,23.80
2022-08-18T20:05:16.906Z,25.45
2022-08-18T20:08:02.593Z,26.13
2022-08-18T20:10:57.890Z,24.58
2022-08-18T20:13:43.350Z,24.25
2022-08-18T20:16:44.389Z,25.10
2022-08-18T20:19:44.765Z,24.45
2022-08-18T20:22:30.661Z,24.27
2022-08-18T20:25:08.261Z,25.17
2022-08-18T20:27:49.978Z,23.42
2022-08-18T20:30:19.430Z,24.60
2022-08-18T20:33:17.860Z,24.08
2022-08-18T20:35:47.338Z,24.98
2022-08-18T20:38:17.826Z,25.40
2022-08-18T20:40:47.984Z,23.60
2022-08-18T20:43:33.492Z,24.20
2022-08-18T20:46:36.257Z,24.45
2022-08-18T20:49:25.570Z,23.83
2022-08-18T20:52:06.403Z,24.70
2022-08-18T20:55:00.402Z,23.58
2022-08-18T20:57:38.009Z,24.02
2022-08-18T21:00:21.359Z,24.40
2022-08-18T21:02:59.029Z,23.02
2022-08-18T21:05:34.992Z,23.65
2022-08-18T21:08:16.039Z,24.13
2022-08-18T21:10:51.708Z,24.35
2022-08-18T21:13:46.165Z,23.75
2022-08-18T21:16:38.328Z,23.58
2022-08-18T21:19:08.926Z,23.95
2022-08-18T21:21:39.791Z,23.65
2022-08-18T21:24:18.133Z,22.73
2022-08-18T21:26:46.561Z,22.55
2022-08-18T21:29:14.035Z,23.35
2022-08-18T21:31:45.178Z,22.48
2022-08-18T21:34:30.359Z,23.10
2022-08-18T21:36:58.523Z,22.73
2022-08-18T21:39:25.530Z,23.33
2022-08-18T21:41:56.100Z,24.27
2022-08-18T21:44:27.994Z,35.15
2022-08-18T21:47:14.535Z,23.08
2022-08-18T21:49:58.359Z,22.02
2022-08-18T21:52:29.581Z,26.27
2022-08-18T21:55:01.684Z,41.50
2022-08-18T21:57:48.251Z,23.02
2022-08-18T22:00:39.656Z,21.83
2022-08-18T22:03:22.589Z,22.73
2022-08-18T22:06:09.608Z,24.70
2022-08-18T22:08:51.221Z,22.02
2022-08-18T22:12:01.014Z,22.27
2022-08-18T22:14:32.911Z,23.27
2022-08-18T22:17:32.931Z,23.17
2022-08-18T22:20:42.084Z,21.73
2022-08-18T22:23:34.676Z,21.92
2022-08-18T22:26:14.906Z,21.88
2022-08-18T22:28:52.891Z,22.23
2022-08-18T22:31:21.421Z,21.42
2022-08-18T22:33:49.563Z,21.33
2022-08-18T22:36:19.575Z,20.77
2022-08-18T22:38:47.677Z,22.58
2022-08-18T22:41:16.278Z,21.70
2022-08-18T22:43:42.670Z,21.42
2022-08-18T22:46:09.408Z,20.45
2022-08-18T22:48:35.856Z,21.42
2022-08-18T22:51:02.422Z,20.73
2022-08-18T22:53:29.914Z,20.75
2022-08-18T22:55:59.489Z,22.15
2022-08-18T22:58:32.521Z,21.08
2022-08-18T23:01:05.327Z,20.65
2022-08-18T23:03:32.303Z,20.63
2022-08-18T23:06:09.869Z,20.02
2022-08-18T23:08:54.873Z,20.45
2022-08-18T23:11:24.757Z,22.70
2022-08-18T23:13:52.326Z,26.15
2022-08-18T23:16:31.501Z,21.08
2022-08-18T23:19:01.754Z,21.90
2022-08-18T23:21:34.102Z,20.83
2022-08-18T23:24:06.949Z,22.17
2022-08-18T23:26:34.337Z,19.90
2022-08-18T23:29:00.980Z,19.42
2022-08-18T23:31:27.886Z,18.80
2022-08-18T23:33:54.289Z,19.70
2022-08-18T23:36:20.690Z,20.05
2022-08-18T23:38:47.091Z,19.02
2022-08-18T23:41:16.368Z,20.13
2022-08-18T23:43:42.902Z,19.13
2022-08-18T23:46:23.842Z,19.65
2022-08-18T23:48:52.842Z,19.05
2022-08-18T23:51:30.414Z,19.17
2022-08-18T23:53:59.657Z,18.65
2022-08-18T23:56:29.441Z,19.70
2022-08-18T23:58:57.135Z,18.75
